Time;durP1;ratioP1;P1;durP2;ratioP2;P2;SDS_P1;SDS_P2;PMS_P1;PMS_P2;Temp;Humidity;BMP_temperature;BMP_pressure;BME280_temperature;BME280_humidity;BME280_pressure;Samples;Min_cycle;Max_cycle;Signal;HPM_P1;HPM_P2
2021/01/09 00:02:07;;;;;;;31.50;15.43;;;;;;;-0.12;86.45;97439.63;5054270;28;20037;-80
2021/01/09 00:04:33;;;;;;;31.88;15.15;;;;;;;-0.10;86.59;97448.72;5070589;28;20056;-81
2021/01/09 00:07:00;;;;;;;36.42;17.88;;;;;;;-0.10;87.18;97445.38;5038307;28;20119;-81
2021/01/09 00:09:25;;;;;;;38.85;17.63;;;;;;;-0.09;87.61;97442.63;5067819;28;20131;-80
2021/01/09 00:11:51;;;;;;;41.70;17.95;;;;;;;-0.13;87.44;97430.38;5075666;28;20024;-81
2021/01/09 00:14:19;;;;;;;36.88;17.08;;;;;;;-0.12;87.45;97434.50;5051074;28;20020;-80
2021/01/09 00:16:48;;;;;;;38.25;17.73;;;;;;;-0.15;87.16;97435.66;5039741;28;20199;-81
2021/01/09 00:19:14;;;;;;;42.63;18.65;;;;;;;-0.15;87.13;97427.97;5089095;28;20032;-80
2021/01/09 00:21:40;;;;;;;39.70;18.05;;;;;;;-0.16;87.03;97426.38;5047010;28;20092;-80
2021/01/09 00:24:07;;;;;;;37.88;17.60;;;;;;;-0.15;87.47;97430.53;5067439;28;20367;-81
2021/01/09 00:26:34;;;;;;;40.90;17.23;;;;;;;-0.13;87.26;97435.47;5043565;28;20379;-81
2021/01/09 00:29:04;;;;;;;37.67;18.38;;;;;;;-0.21;87.67;97429.47;5029907;28;20029;-81
2021/01/09 00:31:30;;;;;;;41.63;17.23;;;;;;;-0.13;87.41;97432.91;5055518;28;20024;-81
2021/01/09 00:33:55;;;;;;;31.88;16.17;;;;;;;-0.07;87.00;97438.16;5050480;28;20098;-81
2021/01/09 00:36:21;;;;;;;37.67;18.55;;;;;;;-0.10;87.05;97441.06;5050464;28;20104;-81
2021/01/09 00:38:47;;;;;;;35.88;15.73;;;;;;;-0.15;87.33;97434.88;5084730;28;20108;-81
2021/01/09 00:41:13;;;;;;;36.95;18.95;;;;;;;-0.11;86.69;97443.78;5064069;28;20479;-81
2021/01/09 00:43:38;;;;;;;40.35;19.45;;;;;;;-0.18;87.30;97440.31;5052055;28;20093;-81
2021/01/09 00:46:05;;;;;;;42.75;20.92;;;;;;;-0.18;86.82;97445.44;5081760;28;20115;-80
2021/01/09 00:48:30;;;;;;;35.20;17.50;;;;;;;-0.24;87.14;97440.03;5046253;28;20111;-81
2021/01/09 00:50:56;;;;;;;36.75;17.45;;;;;;;-0.18;86.64;97450.53;5043955;28;20059;-81
2021/01/09 00:53:22;;;;;;;32.67;17.95;;;;;;;-0.31;86.31;97444.22;5066296;28;20059;-81
2021/01/09 00:55:48;;;;;;;37.75;18.23;;;;;;;-0.31;86.82;97451.91;5049526;28;20089;-81
2021/01/09 00:58:14;;;;;;;32.63;15.88;;;;;;;-0.38;87.00;97438.16;5070443;28;20063;-80
2021/01/09 01:00:39;;;;;;;31.38;16.33;;;;;;;-0.33;86.82;97455.56;5065215;28;20149;-81
2021/01/09 01:03:06;;;;;;;37.75;15.90;;;;;;;-0.39;87.20;97451.94;5050851;28;20040;-80
2021/01/09 01:05:31;;;;;;;30.05;14.77;;;;;;;-0.36;87.04;97458.47;5052938;28;20067;-81
2021/01/09 01:07:57;;;;;;;33.58;16.38;;;;;;;-0.44;86.61;97462.66;5069855;28;20036;-80
2021/01/09 01:10:23;;;;;;;33.30;16.15;;;;;;;-0.53;86.58;97452.63;5088248;28;20036;-81
2021/01/09 01:12:49;;;;;;;34.95;15.50;;;;;;;-0.49;86.76;97459.81;5018485;28;20032;-81
2021/01/09 01:15:17;;;;;;;33.10;15.63;;;;;;;-0.60;85.23;97462.72;5022462;28;20040;-80
2021/01/09 01:17:47;;;;;;;32.03;15.07;;;;;;;-0.69;86.61;97459.41;5036282;28;20390;-81
2021/01/09 01:20:12;;;;;;;32.22;14.73;;;;;;;-0.62;86.27;97462.91;5045548;28;20033;-81
2021/01/09 01:22:39;;;;;;;30.42;15.70;;;;;;;-0.65;86.49;97468.34;5047272;28;20501;-81
2021/01/09 01:25:07;;;;;;;32.55;16.10;;;;;;;-0.78;86.62;97458.63;5063747;28;20043;-80
2021/01/09 01:27:33;;;;;;;35.00;16.77;;;;;;;-0.73;86.50;97472.69;5033119;28;20119;-80
2021/01/09 01:29:59;;;;;;;35.03;15.55;;;;;;;-0.71;87.09;97471.56;5053837;28;20527;-80
2021/01/09 01:32:25;;;;;;;33.33;16.95;;;;;;;-0.69;86.79;97471.38;5061680;28;20071;-80
2021/01/09 01:34:51;;;;;;;38.42;16.88;;;;;;;-0.61;86.94;97471.38;5049684;28;20083;-81
2021/01/09 01:37:17;;;;;;;38.63;16.88;;;;;;;-0.62;87.31;97473.13;5068477;28;20410;-80
2021/01/09 01:39:42;;;;;;;37.50;18.13;;;;;;;-0.58;87.88;97476.94;5051830;28;20114;-80
2021/01/09 01:42:08;;;;;;;35.88;16.13;;;;;;;-0.61;88.12;97471.38;5018994;28;20033;-80
2021/01/09 01:44:34;;;;;;;39.05;16.60;;;;;;;-0.55;87.50;97480.13;5038249;28;20037;-80
2021/01/09 01:47:01;;;;;;;40.72;17.52;;;;;;;-0.61;87.48;97476.47;5030892;28;20036;-80
2021/01/09 01:49:26;;;;;;;38.53;17.40;;;;;;;-0.47;87.32;97485.22;5046738;28;20024;-80
2021/01/09 01:51:52;;;;;;;35.78;16.77;;;;;;;-0.50;88.08;97472.75;5044646;28;20050;-80
2021/01/09 01:54:19;;;;;;;39.00;16.45;;;;;;;-0.46;87.58;97484.25;5032363;28;20399;-81
2021/01/09 01:56:48;;;;;;;36.03;16.65;;;;;;;-0.50;87.99;97482.97;5068303;28;20475;-81
2021/01/09 01:59:14;;;;;;;37.05;16.73;;;;;;;-0.45;87.84;97485.84;5061684;28;20028;-81
2021/01/09 02:01:41;;;;;;;40.13;18.38;;;;;;;-0.53;87.78;97489.25;5034426;28;20024;-80
2021/01/09 02:04:07;;;;;;;38.00;15.57;;;;;;;-0.48;87.78;97486.16;5047645;28;20066;-79
2021/01/09 02:06:35;;;;;;;40.00;17.27;;;;;;;-0.44;87.60;97484.88;5057586;28;20028;-80
2021/01/09 02:09:08;;;;;;;35.80;15.27;;;;;;;-0.45;87.12;97486.63;5039254;28;20507;-80
2021/01/09 02:11:33;;;;;;;34.58;15.82;;;;;;;-0.30;87.68;97498.75;5050907;28;20032;-80
2021/01/09 02:14:03;;;;;;;36.03;16.63;;;;;;;-0.36;87.20;97501.94;5053121;28;20115;-80
2021/01/09 02:16:32;;;;;;;35.40;15.65;;;;;;;-0.35;87.35;97499.22;5052793;28;20058;-80
2021/01/09 02:18:59;;;;;;;35.55;15.43;;;;;;;-0.30;87.62;97507.19;5036888;28;20024;-80
2021/01/09 02:21:30;;;;;;;39.75;17.50;;;;;;;-0.31;87.51;97505.63;5047644;28;20120;-80
2021/01/09 02:23:56;;;;;;;32.92;15.30;;;;;;;-0.28;86.92;97496.81;5032460;28;20032;-80
2021/01/09 02:26:22;;;;;;;33.17;16.55;;;;;;;-0.22;87.44;97514.84;5048413;28;20032;-80
2021/01/09 02:28:48;;;;;;;32.40;14.75;;;;;;;-0.16;87.39;97515.16;5059647;28;20047;-80
2021/01/09 02:31:18;;;;;;;37.97;15.73;;;;;;;-0.26;86.68;97511.03;5051392;28;20032;-80
2021/01/09 02:33:44;;;;;;;33.78;16.13;;;;;;;-0.22;86.99;97504.63;5053924;28;20102;-80
2021/01/09 02:36:10;;;;;;;36.25;16.63;;;;;;;-0.24;87.19;97500.63;5043883;28;20486;-80
2021/01/09 02:38:36;;;;;;;30.80;14.50;;;;;;;-0.23;87.29;97515.00;5049978;28;20457;-80
2021/01/09 02:41:03;;;;;;;34.33;15.95;;;;;;;-0.41;87.30;97505.81;5084213;28;20061;-80
2021/01/09 02:43:29;;;;;;;34.35;16.10;;;;;;;-0.45;87.03;97498.63;5039970;28;20039;-80
2021/01/09 02:45:54;;;;;;;33.22;15.48;;;;;;;-0.43;87.06;97500.06;5056434;28;20313;-80
2021/01/09 02:48:19;;;;;;;28.48;13.52;;;;;;;-0.41;86.68;97498.13;5023438;28;20537;-80
2021/01/09 02:50:45;;;;;;;30.30;13.68;;;;;;;-0.40;85.96;97494.59;5042419;28;20040;-80
2021/01/09 02:53:11;;;;;;;28.63;14.63;;;;;;;-0.41;85.94;97505.03;5086960;28;20491;-80
2021/01/09 02:55:37;;;;;;;25.40;12.95;;;;;;;-0.44;86.17;97495.13;5072553;28;20483;-80
2021/01/09 02:58:03;;;;;;;29.38;14.20;;;;;;;-0.49;85.99;97499.94;5090679;28;20383;-80
2021/01/09 03:00:28;;;;;;;26.73;12.88;;;;;;;-0.48;85.84;97504.06;5040178;28;20335;-80
2021/01/09 03:02:53;;;;;;;24.55;12.27;;;;;;;-0.60;85.29;97501.06;5045197;28;20047;-80
2021/01/09 03:05:19;;;;;;;24.38;12.13;;;;;;;-0.67;85.98;97506.06;5025949;28;20096;-80
2021/01/09 03:07:45;;;;;;;25.92;12.05;;;;;;;-0.63;85.46;97509.88;5052841;28;20519;-80
2021/01/09 03:10:10;;;;;;;23.15;11.73;;;;;;;-0.69;85.72;97513.09;5032056;28;20112;-80
2021/01/09 03:12:36;;;;;;;25.08;11.48;;;;;;;-0.85;84.96;97495.25;5055987;28;20039;-81
2021/01/09 03:15:02;;;;;;;25.90;12.68;;;;;;;-0.95;84.25;97500.53;5052037;28;20131;-80
2021/01/09 03:17:28;;;;;;;22.70;11.73;;;;;;;-0.96;85.50;97519.38;5052789;28;20086;-80
2021/01/09 03:19:56;;;;;;;25.05;12.80;;;;;;;-1.01;85.21;97519.88;5053713;28;20041;-80
2021/01/09 03:22:21;;;;;;;25.65;12.23;;;;;;;-1.02;84.71;97510.59;5052997;28;20094;-80
2021/01/09 03:24:47;;;;;;;26.15;12.90;;;;;;;-1.08;85.45;97508.72;5053459;28;20459;-80
2021/01/09 03:27:13;;;;;;;26.20;12.60;;;;;;;-1.15;84.27;97516.22;5053430;28;20036;-80
2021/01/09 03:29:39;;;;;;;39.53;13.68;;;;;;;-1.28;85.38;97510.00;5070873;28;20396;-80
2021/01/09 03:32:05;;;;;;;28.73;12.65;;;;;;;-1.35;85.61;97507.28;5044172;28;20040;-80
2021/01/09 03:34:30;;;;;;;24.75;11.05;;;;;;;-1.36;85.14;97503.91;5087163;28;20636;-80
2021/01/09 03:36:56;;;;;;;31.30;12.98;;;;;;;-1.32;85.14;97514.63;5068402;28;20024;-80
2021/01/09 03:39:22;;;;;;;28.02;12.02;;;;;;;-1.41;85.27;97510.47;5056567;28;20432;-80
2021/01/09 03:41:51;;;;;;;29.92;12.95;;;;;;;-1.42;85.43;97512.25;5067715;28;20502;-80
2021/01/09 03:44:17;;;;;;;33.25;13.60;;;;;;;-1.41;85.88;97511.25;5047677;28;20065;-80
2021/01/09 03:46:43;;;;;;;27.38;12.68;;;;;;;-1.37;85.65;97512.56;5072750;28;20043;-80
2021/01/09 03:49:09;;;;;;;24.30;10.88;;;;;;;-1.37;85.49;97509.19;5089659;28;20035;-80
2021/01/09 03:51:35;;;;;;;37.97;12.20;;;;;;;-1.40;86.03;97509.53;5091025;28;20040;-80
2021/01/09 03:54:01;;;;;;;28.73;12.77;;;;;;;-1.40;85.80;97502.66;5087039;28;20031;-80
2021/01/09 03:56:27;;;;;;;31.70;13.70;;;;;;;-1.41;85.04;97495.94;5084013;28;20256;-80
2021/01/09 03:58:52;;;;;;;23.08;10.95;;;;;;;-1.47;85.16;97491.50;5036536;28;20488;-80
2021/01/09 04:01:18;;;;;;;25.45;12.43;;;;;;;-1.49;84.67;97498.50;5055575;28;20051;-80
2021/01/09 04:03:44;;;;;;;25.00;11.00;;;;;;;-1.62;85.26;97487.97;5072542;28;20052;-80
2021/01/09 04:06:10;;;;;;;20.25;9.43;;;;;;;-1.60;85.09;97497.06;5035449;28;20029;-80
2021/01/09 04:08:35;;;;;;;19.33;9.88;;;;;;;-1.58;84.67;97507.13;5070430;28;20343;-80
2021/01/09 04:11:01;;;;;;;21.85;9.57;;;;;;;-1.56;84.87;97506.00;5034985;28;20039;-80
2021/01/09 04:13:26;;;;;;;21.00;10.68;;;;;;;-1.46;84.97;97494.84;5051608;28;20032;-80
2021/01/09 04:15:52;;;;;;;27.92;13.77;;;;;;;-1.47;85.72;97517.03;5007473;28;20041;-80
2021/01/09 04:18:17;;;;;;;27.25;14.23;;;;;;;-1.55;86.33;97494.03;5052448;28;20248;-80
2021/01/09 04:20:43;;;;;;;29.75;13.80;;;;;;;-1.39;86.57;97514.47;5036354;28;20391;-80
2021/01/09 04:23:09;;;;;;;34.83;14.55;;;;;;;-1.43;86.24;97510.63;5050110;28;20061;-81
2021/01/09 04:25:35;;;;;;;29.80;14.27;;;;;;;-1.38;85.71;97515.28;5052062;28;20028;-80
2021/01/09 04:28:01;;;;;;;24.58;11.70;;;;;;;-1.34;85.94;97516.53;5032064;28;20041;-80
2021/01/09 04:30:26;;;;;;;23.38;12.02;;;;;;;-1.32;85.87;97515.44;5013773;28;20049;-80
2021/01/09 04:32:52;;;;;;;23.63;11.68;;;;;;;-1.22;85.29;97517.00;5015859;28;20048;-80
2021/01/09 04:35:17;;;;;;;22.88;10.60;;;;;;;-1.34;85.89;97522.47;5043282;28;20131;-80
2021/01/09 04:37:43;;;;;;;24.50;10.98;;;;;;;-1.34;85.92;97524.19;5035597;28;20043;-80
2021/01/09 04:40:09;;;;;;;22.25;10.20;;;;;;;-1.21;85.25;97536.50;5035469;28;20055;-80
2021/01/09 04:42:35;;;;;;;24.80;10.23;;;;;;;-1.23;85.52;97529.00;5047284;28;20468;-80
2021/01/09 04:45:01;;;;;;;17.15;8.77;;;;;;;-1.18;85.88;97546.41;5027982;28;20037;-80
2021/01/09 04:47:29;;;;;;;19.02;9.07;;;;;;;-1.21;85.78;97541.63;5046016;28;20102;-80
2021/01/09 04:49:55;;;;;;;20.05;9.27;;;;;;;-1.10;85.04;97535.38;5051653;28;20101;-80
2021/01/09 04:52:22;;;;;;;22.98;11.38;;;;;;;-1.11;84.98;97543.97;5036240;28;20024;-80
2021/01/09 04:54:52;;;;;;;24.77;11.48;;;;;;;-1.11;85.24;97539.69;5052225;28;20502;-80
2021/01/09 04:57:18;;;;;;;24.30;11.27;;;;;;;-1.09;85.17;97540.31;5034657;28;20078;-80
2021/01/09 04:59:44;;;;;;;28.73;12.88;;;;;;;-1.17;85.66;97541.09;5045287;28;20071;-80
2021/01/09 05:02:12;;;;;;;23.58;11.75;;;;;;;-1.15;85.65;97544.31;5034435;28;20024;-80
2021/01/09 05:04:42;;;;;;;27.10;11.27;;;;;;;-1.14;85.33;97547.69;5030674;28;20060;-80
2021/01/09 05:07:08;;;;;;;24.85;10.98;;;;;;;-1.04;85.34;97550.06;5034600;28;20036;-80
2021/01/09 05:09:34;;;;;;;20.90;9.98;;;;;;;-1.10;85.51;97537.94;5034642;28;20035;-80
2021/01/09 05:12:00;;;;;;;18.08;8.85;;;;;;;-1.04;85.21;97544.97;5017870;28;20085;-80
2021/01/09 05:14:27;;;;;;;22.77;11.25;;;;;;;-1.05;85.65;97549.25;5035170;28;20518;-80
2021/01/09 05:16:52;;;;;;;23.00;11.15;;;;;;;-0.99;85.23;97558.06;5033923;28;20029;-80
2021/01/09 05:19:18;;;;;;;23.40;10.57;;;;;;;-1.01;85.05;97554.84;5051383;28;20041;-80
2021/01/09 05:21:45;;;;;;;27.33;11.23;;;;;;;-1.07;85.05;97556.28;5051074;28;20037;-80
2021/01/09 05:24:13;;;;;;;23.77;12.00;;;;;;;-1.13;84.91;97556.94;5051479;28;20031;-80
2021/01/09 05:26:40;;;;;;;23.73;12.60;;;;;;;-1.07;85.58;97558.06;5051111;28;20029;-80
2021/01/09 05:29:07;;;;;;;25.70;11.88;;;;;;;-1.07;85.34;97563.16;5068932;28;20109;-80
2021/01/09 05:31:36;;;;;;;25.52;11.38;;;;;;;-1.07;85.45;97558.06;5050362;28;20672;-80
2021/01/09 05:34:04;;;;;;;26.30;11.48;;;;;;;-0.97;85.69;97559.47;5068889;28;20564;-80
2021/01/09 05:36:30;;;;;;;21.50;10.38;;;;;;;-0.96;84.97;97557.72;5032609;28;20107;-80
2021/01/09 05:38:56;;;;;;;23.65;11.30;;;;;;;-0.96;85.61;97561.09;5068886;28;20043;-80
2021/01/09 05:41:23;;;;;;;26.42;11.63;;;;;;;-1.04;85.22;97558.53;5027587;28;20041;-81
2021/01/09 05:44:04;;;;;;;24.00;12.70;;;;;;;-1.10;85.70;97561.72;5051295;28;20154;-80
2021/01/09 05:46:32;;;;;;;22.95;12.20;;;;;;;-0.98;85.41;97562.19;5050846;28;20029;-80
2021/01/09 05:48:58;;;;;;;20.40;10.15;;;;;;;-0.99;85.84;97561.41;5042642;28;20028;-80
2021/01/09 05:51:33;;;;;;;24.20;10.27;;;;;;;-1.08;85.32;97547.03;5031122;28;20029;-80
2021/01/09 05:53:58;;;;;;;22.73;9.80;;;;;;;-1.01;85.46;97558.22;5048931;28;20033;-80
2021/01/09 05:56:24;;;;;;;22.10;9.98;;;;;;;-0.99;85.26;97556.28;5050334;28;20396;-80
2021/01/09 05:58:52;;;;;;;21.35;10.88;;;;;;;-0.99;85.66;97552.94;5034314;28;20021;-80
2021/01/09 06:01:25;;;;;;;18.75;8.88;;;;;;;-1.02;85.48;97566.81;5049707;28;20372;-80
2021/01/09 06:04:16;;;;;;;18.73;8.90;;;;;;;-1.02;85.16;97559.16;5029667;28;20045;-81
2021/01/09 06:07:06;;;;;;;22.98;10.80;;;;;;;-1.03;85.58;97559.31;5044059;28;20108;-80
2021/01/09 06:09:35;;;;;;;17.70;9.20;;;;;;;-1.00;84.97;97547.00;5050313;28;20025;-80
2021/01/09 06:12:04;;;;;;;18.27;8.93;;;;;;;-0.91;85.55;97568.25;5049796;28;20532;-80
2021/01/09 06:14:33;;;;;;;20.17;10.32;;;;;;;-0.88;84.51;97572.25;5068310;28;20020;-80
2021/01/09 06:17:00;;;;;;;20.48;9.43;;;;;;;-0.97;84.70;97559.47;5049588;28;20531;-80
2021/01/09 06:19:25;;;;;;;19.08;9.48;;;;;;;-0.95;85.06;97552.44;5020173;28;20245;-81
2021/01/09 06:21:54;;;;;;;17.95;9.52;;;;;;;-0.93;84.91;97548.94;5003290;28;20033;-80
2021/01/09 06:24:21;;;;;;;20.33;9.60;;;;;;;-1.01;85.14;97558.22;5049081;28;20431;-80
2021/01/09 06:26:48;;;;;;;21.15;9.90;;;;;;;-0.98;85.13;97557.06;5067762;28;20493;-80
2021/01/09 06:29:34;;;;;;;21.08;9.00;;;;;;;-1.17;85.40;97553.09;5050151;28;20116;-80
2021/01/09 06:32:04;;;;;;;21.95;10.80;;;;;;;-1.05;85.13;97554.38;5048069;28;20035;-80
2021/01/09 06:34:32;;;;;;;20.23;9.88;;;;;;;-0.99;85.27;97565.72;5029880;28;20041;-80
2021/01/09 06:37:00;;;;;;;21.15;9.65;;;;;;;-1.02;85.13;97566.81;5049217;28;20024;-80
2021/01/09 06:39:27;;;;;;;22.58;11.55;;;;;;;-0.95;84.76;97572.88;5050373;28;20361;-80
2021/01/09 06:41:55;;;;;;;18.92;9.27;;;;;;;-1.00;85.17;97564.13;5050984;28;20120;-80
2021/01/09 06:44:25;;;;;;;20.13;9.23;;;;;;;-0.97;84.84;97558.69;5034464;28;20033;-80
2021/01/09 06:46:54;;;;;;;18.70;8.35;;;;;;;-0.90;84.67;97576.72;5051280;28;20028;-80
2021/01/09 06:49:25;;;;;;;19.25;8.38;;;;;;;-0.89;85.04;97576.56;5030787;28;20063;-80
2021/01/09 06:52:02;;;;;;;16.63;9.25;;;;;;;-1.06;84.83;97565.56;5046883;28;20383;-80
2021/01/09 06:54:39;;;;;;;18.85;9.48;;;;;;;-1.02;84.56;97577.06;5047240;28;20127;-80
2021/01/09 06:57:04;;;;;;;19.83;9.50;;;;;;;-0.90;85.14;97574.97;5054123;28;20036;-80
2021/01/09 06:59:30;;;;;;;21.45;9.68;;;;;;;-0.89;84.34;97580.88;5072107;28;20032;-81
2021/01/09 07:02:25;;;;;;;20.95;9.43;;;;;;;-1.01;85.03;97583.78;5053910;28;20487;-80
2021/01/09 07:05:22;;;;;;;19.50;9.38;;;;;;;-0.90;84.49;97592.84;5052345;28;20415;-80
2021/01/09 07:07:53;;;;;;;18.95;8.75;;;;;;;-0.89;84.02;97591.09;5046349;28;20052;-80
2021/01/09 07:10:29;;;;;;;18.85;8.57;;;;;;;-0.87;84.02;97587.44;5054342;28;20490;-81
2021/01/09 07:13:05;;;;;;;19.15;9.00;;;;;;;-0.88;83.60;97592.69;5037036;28;20479;-80
2021/01/09 07:15:36;;;;;;;18.67;8.27;;;;;;;-0.87;84.03;97590.00;5034431;28;20036;-80
2021/01/09 07:18:04;;;;;;;21.50;9.77;;;;;;;-0.82;84.21;97605.66;5053288;28;20036;-80
2021/01/09 07:20:35;;;;;;;18.27;9.10;;;;;;;-0.84;84.15;97610.13;5054021;28;20502;-80
2021/01/09 07:23:04;;;;;;;20.23;9.88;;;;;;;-0.73;84.42;97606.44;5048022;28;20104;-80
2021/01/09 07:25:37;;;;;;;20.45;8.98;;;;;;;-0.75;83.83;97613.47;5050208;28;20029;-80
2021/01/09 07:28:06;;;;;;;16.35;8.20;;;;;;;-0.68;83.58;97611.88;5047257;28;20039;-80
2021/01/09 07:30:31;;;;;;;19.15;8.40;;;;;;;-0.78;83.66;97601.00;5053599;28;20539;-80
2021/01/09 07:32:59;;;;;;;18.48;9.02;;;;;;;-0.72;83.87;97618.28;5053897;28;20528;-80
2021/01/09 07:35:29;;;;;;;16.75;8.80;;;;;;;-0.79;83.49;97622.41;5033928;28;20055;-80
2021/01/09 07:37:58;;;;;;;17.38;8.10;;;;;;;-0.79;83.52;97609.63;5065884;28;20538;-80
2021/01/09 07:40:24;;;;;;;16.88;8.15;;;;;;;-0.71;82.54;97619.06;5053715;28;20036;-80
2021/01/09 07:42:51;;;;;;;16.67;8.15;;;;;;;-0.74;83.66;97625.28;5053184;28;20069;-80
2021/01/09 07:45:19;;;;;;;21.33;8.93;;;;;;;-0.84;84.80;97624.66;5053788;28;20036;-80
2021/01/09 07:47:47;;;;;;;18.10;8.55;;;;;;;-0.82;84.21;97622.75;5037086;28;20382;-80
2021/01/09 07:50:15;;;;;;;23.73;9.65;;;;;;;-0.79;85.02;97628.34;5053827;28;20101;-80
2021/01/09 07:52:41;;;;;;;19.73;9.65;;;;;;;-0.73;84.45;97632.00;5053119;28;20107;-80
2021/01/09 07:55:09;;;;;;;19.70;9.18;;;;;;;-0.74;85.11;97629.59;5054026;28;20032;-80
2021/01/09 07:57:38;;;;;;;20.60;9.48;;;;;;;-0.72;84.84;97633.59;5053423;28;20035;-80
2021/01/09 08:00:07;;;;;;;17.60;9.48;;;;;;;-0.69;84.45;97638.38;5036623;28;20029;-80
2021/01/09 08:02:35;;;;;;;20.35;10.55;;;;;;;-0.66;85.19;97643.19;5046800;28;20305;-80
2021/01/09 08:05:21;;;;;;;20.08;11.00;;;;;;;-0.74;85.26;97647.50;5051840;28;20102;-80
2021/01/09 08:07:55;;;;;;;19.23;10.90;;;;;;;-0.72;85.11;97648.94;5049225;28;20043;-80
2021/01/09 08:10:29;;;;;;;26.17;13.18;;;;;;;-0.78;84.90;97645.25;5038890;28;20055;-80
2021/01/09 08:12:59;;;;;;;19.53;9.30;;;;;;;-0.66;85.40;97658.53;5042697;28;20395;-80
2021/01/09 08:15:26;;;;;;;24.52;12.15;;;;;;;-0.61;85.31;97661.41;5050881;28;20078;-79
2021/01/09 08:17:53;;;;;;;22.90;11.85;;;;;;;-0.54;85.14;97665.88;5049392;28;20536;-80
2021/01/09 08:20:19;;;;;;;22.02;10.77;;;;;;;-0.50;84.71;97657.69;5036172;28;20093;-80
2021/01/09 08:22:53;;;;;;;20.92;10.60;;;;;;;-0.67;84.56;97659.50;5032345;28;20021;-80
2021/01/09 08:25:21;;;;;;;21.45;10.48;;;;;;;-0.60;84.53;97664.75;5034456;28;20025;-80
2021/01/09 08:27:55;;;;;;;21.83;11.30;;;;;;;-0.53;84.58;97668.28;5052529;28;20039;-80
2021/01/09 08:30:23;;;;;;;24.08;11.35;;;;;;;-0.56;85.29;97671.16;5026650;28;20931;-80
2021/01/09 08:32:50;;;;;;;33.33;19.15;;;;;;;-0.53;85.43;97675.13;5002559;28;20047;-80
2021/01/09 08:35:16;;;;;;;37.35;19.00;;;;;;;-0.49;85.22;97681.53;5045668;28;20056;-80
2021/01/09 08:37:43;;;;;;;40.05;21.75;;;;;;;-0.55;85.34;97672.72;5033910;28;20041;-80
2021/01/09 08:40:16;;;;;;;35.75;19.02;;;;;;;-0.53;85.29;97682.81;5030922;28;20040;-80
2021/01/09 08:42:52;;;;;;;41.93;24.47;;;;;;;-0.56;84.80;97691.63;5050158;28;20363;-80
2021/01/09 08:45:18;;;;;;;29.60;15.02;;;;;;;-0.53;85.22;97683.63;5036752;28;20242;-80
2021/01/09 08:47:45;;;;;;;29.05;14.25;;;;;;;-0.53;85.31;97682.81;5071203;28;20155;-80
2021/01/09 08:50:13;;;;;;;27.77;14.73;;;;;;;-0.50;85.79;97683.28;5049255;28;20422;-80
2021/01/09 08:52:42;;;;;;;30.42;15.32;;;;;;;-0.61;85.60;97681.84;5046347;28;20288;-80
2021/01/09 08:55:08;;;;;;;23.15;13.68;;;;;;;-0.59;85.79;97679.94;5031928;28;20028;-80
2021/01/09 08:57:34;;;;;;;27.33;13.93;;;;;;;-0.51;85.39;97696.25;5067740;28;20503;-80
2021/01/09 09:00:00;;;;;;;24.20;13.38;;;;;;;-0.57;85.72;97677.22;5048473;28;20039;-79
2021/01/09 09:02:27;;;;;;;25.55;13.15;;;;;;;-0.61;85.44;97681.84;5047201;28;20052;-79
2021/01/09 09:04:53;;;;;;;27.20;13.20;;;;;;;-0.51;85.37;97689.38;5034236;28;20059;-79
2021/01/09 09:07:26;;;;;;;57.97;28.60;;;;;;;-0.58;85.74;97694.31;5026168;28;20036;-80
2021/01/09 09:09:52;;;;;;;39.72;23.65;;;;;;;-0.52;85.95;97694.66;5027194;28;20678;-79
2021/01/09 09:12:23;;;;;;;28.40;14.00;;;;;;;-0.59;85.43;97690.16;5023952;28;20103;-79
2021/01/09 09:14:56;;;;;;;28.38;13.20;;;;;;;-0.63;85.85;97680.44;5030987;28;20072;-79
2021/01/09 09:17:23;;;;;;;28.33;13.52;;;;;;;-0.47;85.84;97687.28;4998639;28;20029;-79
2021/01/09 09:19:49;;;;;;;27.88;12.85;;;;;;;-0.48;85.86;97690.78;5011937;28;20316;-79
2021/01/09 09:22:14;;;;;;;28.20;11.73;;;;;;;-0.45;85.67;97686.16;5049122;28;20589;-79
2021/01/09 09:24:43;;;;;;;25.48;11.05;;;;;;;-0.38;85.33;97692.25;5031631;28;20498;-79
2021/01/09 09:27:26;;;;;;;24.48;11.30;;;;;;;-0.49;84.99;97691.78;5031384;28;20025;-79
2021/01/09 09:30:11;;;;;;;;;;;;;;;-0.57;85.74;97702.78;5029873;28;20032;-79
2021/01/09 09:32:37;;;;;;;20.25;10.88;;;;;;;-0.29;84.97;97687.09;4991204;28;20004;-79
2021/01/09 09:35:26;;;;;;;24.50;10.63;;;;;;;-0.33;84.72;97699.41;5031211;28;20083;-79
2021/01/09 09:37:53;;;;;;;23.23;10.65;;;;;;;-0.28;85.29;97702.28;5025794;28;20028;-79
2021/01/09 09:40:26;;;;;;;23.02;10.70;;;;;;;-0.34;84.64;97702.94;5001734;28;20314;-80
2021/01/09 09:42:52;;;;;;;25.55;11.95;;;;;;;-0.07;84.53;97708.66;5031966;28;20580;-79
2021/01/09 09:45:19;;;;;;;23.83;10.75;;;;;;;-0.08;84.39;97705.31;5031555;28;20029;-79
2021/01/09 09:47:48;;;;;;;23.08;11.63;;;;;;;0.06;84.20;97716.63;5001695;28;20119;-79
2021/01/09 09:50:21;;;;;;;21.75;9.88;;;;;;;0.11;83.41;97711.81;5031138;28;20045;-79
2021/01/09 09:53:00;;;;;;;24.58;10.85;;;;;;;0.08;83.11;97714.69;5031689;28;20104;-79
2021/01/09 09:55:26;;;;;;;22.33;10.48;;;;;;;0.22;83.45;97708.09;5015003;28;20033;-79
2021/01/09 09:58:08;;;;;;;23.80;10.27;;;;;;;-0.07;83.99;97717.16;5027018;28;20068;-79
2021/01/09 10:00:43;;;;;;;22.77;10.77;;;;;;;-0.14;84.00;97720.50;5011547;28;20125;-78
2021/01/09 10:03:10;;;;;;;21.38;9.90;;;;;;;0.23;83.15;97724.28;5031083;28;20033;-79
2021/01/09 10:05:35;;;;;;;24.52;10.75;;;;;;;0.36;83.24;97733.03;5030991;28;20682;-79
2021/01/09 10:08:12;;;;;;;26.10;12.23;;;;;;;0.26;83.50;97735.00;5049652;28;20033;-79
2021/01/09 10:10:38;;;;;;;29.35;13.35;;;;;;;0.33;83.24;97728.25;4995306;28;20037;-79
2021/01/09 10:13:04;;;;;;;23.52;11.43;;;;;;;0.36;83.42;97732.22;4995404;28;20032;-79
2021/01/09 10:15:30;;;;;;;25.60;12.75;;;;;;;0.42;82.62;97739.25;5028436;28;20416;-79
2021/01/09 10:17:57;;;;;;;28.88;15.57;;;;;;;0.34;82.63;97737.53;5032125;28;20033;-78
2021/01/09 10:20:24;;;;;;;21.45;11.00;;;;;;;0.40;83.11;97738.63;5031884;28;20451;-79
2021/01/09 10:22:50;;;;;;;21.38;10.05;;;;;;;0.47;82.81;97734.44;5032459;28;20021;-79
2021/01/09 10:25:16;;;;;;;19.92;9.55;;;;;;;0.64;82.39;97739.50;5031659;28;20053;-79
2021/01/09 10:27:41;;;;;;;18.33;8.95;;;;;;;0.35;82.34;97734.00;5033377;28;20047;-78
2021/01/09 10:30:07;;;;;;;18.38;10.07;;;;;;;0.51;82.58;97727.22;5035385;28;20033;-79
2021/01/09 10:32:33;;;;;;;21.08;8.85;;;;;;;0.63;81.99;97725.09;5029264;28;20045;-78
2021/01/09 10:34:58;;;;;;;14.38;7.82;;;;;;;0.36;81.71;97725.34;5035135;28;20116;-79
2021/01/09 10:37:24;;;;;;;18.88;8.25;;;;;;;0.52;82.70;97733.94;5036942;28;20128;-78
2021/01/09 10:39:50;;;;;;;18.73;7.75;;;;;;;0.67;81.46;97732.28;5032960;28;20045;-78
2021/01/09 10:42:15;;;;;;;19.13;8.82;;;;;;;0.80;82.18;97730.94;5034983;28;20089;-78
2021/01/09 10:44:41;;;;;;;18.40;8.98;;;;;;;0.80;81.48;97725.81;5035604;28;20380;-78
2021/01/09 10:47:08;;;;;;;19.15;8.90;;;;;;;0.97;81.94;97729.88;5036817;28;20044;-78
2021/01/09 10:49:34;;;;;;;18.92;8.52;;;;;;;0.90;81.27;97722.06;5037438;28;20037;-78
2021/01/09 10:52:00;;;;;;;17.50;8.00;;;;;;;0.97;81.21;97721.41;5019681;28;20152;-78
2021/01/09 10:54:25;;;;;;;15.90;8.23;;;;;;;0.98;81.11;97723.78;5047710;28;20035;-78
2021/01/09 10:56:51;;;;;;;16.42;7.85;;;;;;;0.95;81.20;97720.78;5036431;28;20037;-79
2021/01/09 10:59:17;;;;;;;16.23;7.47;;;;;;;1.12;81.58;97717.94;5054936;28;20625;-78
2021/01/09 11:01:45;;;;;;;15.65;7.82;;;;;;;1.09;79.86;97715.69;5036744;28;20075;-78
2021/01/09 11:04:10;;;;;;;13.82;7.28;;;;;;;1.15;80.69;97709.13;5045743;28;20055;-78
2021/01/09 11:06:36;;;;;;;16.98;7.32;;;;;;;1.02;80.08;97716.56;5022566;28;20322;-78
2021/01/09 11:09:02;;;;;;;14.55;7.38;;;;;;;1.01;80.66;97713.22;5077957;28;20387;-78
2021/01/09 11:11:28;;;;;;;16.08;7.28;;;;;;;1.15;80.70;97719.38;5044679;28;20042;-78
2021/01/09 11:13:53;;;;;;;12.73;6.28;;;;;;;1.16;80.15;97710.69;5055663;28;20453;-78
2021/01/09 11:16:23;;;;;;;14.25;7.22;;;;;;;0.75;80.22;97716.06;5080112;28;20028;-79
2021/01/09 11:18:55;;;;;;;15.30;7.03;;;;;;;0.60;80.72;97710.03;5057305;28;20103;-78
2021/01/09 11:21:20;;;;;;;16.58;6.90;;;;;;;0.61;81.05;97717.56;5049993;28;20046;-78
2021/01/09 11:23:46;;;;;;;15.65;7.03;;;;;;;0.70;81.78;97710.63;5088408;28;20032;-77
2021/01/09 11:26:23;;;;;;;17.05;8.25;;;;;;;0.70;80.85;97721.72;5072870;28;20578;-78